createdAt,value
2023-04-17T00:02:00.549Z,40.92
2023-04-17T00:04:29.816Z,50.95
2023-04-17T00:06:59.772Z,49.15
2023-04-17T00:09:36.198Z,49.60
2023-04-17T00:12:05.943Z,46.42
2023-04-17T00:14:34.750Z,46.33
2023-04-17T00:17:01.211Z,49.08
2023-04-17T00:19:27.659Z,47.42
2023-04-17T00:21:54.100Z,55.88
2023-04-17T00:24:20.653Z,49.00
2023-04-17T00:26:49.701Z,51.60
2023-04-17T00:29:16.231Z,45.38
2023-04-17T00:31:43.488Z,48.20
2023-04-17T00:34:10.084Z,47.47
2023-04-17T00:36:36.606Z,51.53
2023-04-17T00:39:03.140Z,48.17
2023-04-17T00:41:29.598Z,47.10
2023-04-17T00:43:56.156Z,50.45
2023-04-17T00:46:25.714Z,51.58
2023-04-17T00:48:52.559Z,48.67
2023-04-17T00:51:19.170Z,53.67
2023-04-17T00:53:46.055Z,45.28
2023-04-17T00:56:16.815Z,46.95
2023-04-17T00:58:43.932Z,47.63
2023-04-17T01:01:12.189Z,46.17
2023-04-17T01:03:38.801Z,46.78
2023-04-17T01:06:06.170Z,53.03
2023-04-17T01:08:41.560Z,45.70
2023-04-17T01:11:12.116Z,51.50
2023-04-17T01:13:48.816Z,48.78
2023-04-17T01:16:21.806Z,49.75
2023-04-17T01:18:48.448Z,49.17
2023-04-17T01:21:15.369Z,44.88
2023-04-17T01:23:53.105Z,42.25
2023-04-17T01:26:24.519Z,45.47
2023-04-17T01:28:56.618Z,46.95
2023-04-17T01:31:28.190Z,46.92
2023-04-17T01:33:54.881Z,47.42
2023-04-17T01:36:21.589Z,53.08
2023-04-17T01:38:48.170Z,52.22
2023-04-17T01:41:14.682Z,52.17
2023-04-17T01:43:44.077Z,44.35
2023-04-17T01:46:12.720Z,44.10
2023-04-17T01:48:39.799Z,41.10
2023-04-17T01:51:06.382Z,38.95
2023-04-17T01:53:33.874Z,33.72
2023-04-17T01:56:01.966Z,35.17
2023-04-17T01:58:28.825Z,33.40
2023-04-17T02:00:55.492Z,38.78
2023-04-17T02:03:24.417Z,33.58
2023-04-17T02:05:53.570Z,36.13
2023-04-17T02:08:20.126Z,37.13
2023-04-17T02:10:46.608Z,40.67
2023-04-17T02:13:13.293Z,32.95
2023-04-17T02:15:40.329Z,37.42
2023-04-17T02:18:07.375Z,33.13
2023-04-17T02:20:34.656Z,31.52
2023-04-17T02:23:02.579Z,35.60
2023-04-17T02:25:29.682Z,32.90
2023-04-17T02:27:56.782Z,33.65
2023-04-17T02:30:24.181Z,31.48
2023-04-17T02:32:56.208Z,27.60
2023-04-17T02:35:28.049Z,29.52
2023-04-17T02:37:54.816Z,27.98
2023-04-17T02:40:21.358Z,27.65
2023-04-17T02:42:47.846Z,27.23
2023-04-17T02:45:14.322Z,26.55
2023-04-17T02:47:41.308Z,23.67
2023-04-17T02:50:09.069Z,26.88
2023-04-17T02:52:35.548Z,26.98
2023-04-17T02:55:02.088Z,27.00
2023-04-17T02:57:28.701Z,27.45
2023-04-17T02:59:55.330Z,26.65
2023-04-17T03:02:22.213Z,28.63
2023-04-17T03:04:50.233Z,30.20
2023-04-17T03:07:18.768Z,30.50
2023-04-17T03:09:48.955Z,28.25
2023-04-17T03:12:17.131Z,29.05
2023-04-17T03:14:44.217Z,30.17
2023-04-17T03:17:12.120Z,33.05
2023-04-17T03:19:38.560Z,27.80
2023-04-17T03:22:05.876Z,26.95
2023-04-17T03:24:33.325Z,28.00
2023-04-17T03:27:03.731Z,27.30
2023-04-17T03:29:30.257Z,26.65
2023-04-17T03:31:56.757Z,23.90
2023-04-17T03:34:23.498Z,30.85
2023-04-17T03:36:49.959Z,26.60
2023-04-17T03:39:19.017Z,25.52
2023-04-17T03:41:45.450Z,24.30
2023-04-17T03:44:12.599Z,25.75
2023-04-17T03:46:39.155Z,24.73
2023-04-17T03:49:06.237Z,31.17
2023-04-17T03:51:32.727Z,31.08
2023-04-17T03:54:02.463Z,28.23
2023-04-17T03:56:28.926Z,29.48
2023-04-17T03:58:55.447Z,33.92
2023-04-17T04:01:22.373Z,34.35
2023-04-17T04:03:49.336Z,32.88
2023-04-17T04:06:20.200Z,36.38
2023-04-17T04:08:46.833Z,38.78
2023-04-17T04:11:13.916Z,38.95
2023-04-17T04:13:40.823Z,39.80
2023-04-17T04:16:08.274Z,39.30
2023-04-17T04:18:36.167Z,41.08
2023-04-17T04:21:02.708Z,43.45
2023-04-17T04:23:30.579Z,39.53
2023-04-17T04:25:57.973Z,39.17
2023-04-17T04:28:24.515Z,39.10
2023-04-17T04:30:53.501Z,40.28
2023-04-17T04:33:20.898Z,41.05
2023-04-17T04:35:48.518Z,42.28
2023-04-17T04:38:20.061Z,40.33
2023-04-17T04:40:50.017Z,41.10
2023-04-17T04:43:16.656Z,45.85
2023-04-17T04:45:43.311Z,41.78
2023-04-17T04:48:09.829Z,44.03
2023-04-17T04:50:36.458Z,41.33
2023-04-17T04:53:02.951Z,41.17
2023-04-17T04:55:30.774Z,43.30
2023-04-17T04:57:57.588Z,41.80
2023-04-17T05:00:24.872Z,43.63
2023-04-17T05:02:51.437Z,46.92
2023-04-17T05:05:18.190Z,39.88
2023-04-17T05:07:44.648Z,45.30
2023-04-17T05:10:11.206Z,40.95
2023-04-17T05:12:37.842Z,43.85
2023-04-17T05:15:04.794Z,40.78
2023-04-17T05:17:31.371Z,43.13
2023-04-17T05:19:57.952Z,38.80
2023-04-17T05:22:27.584Z,42.72
2023-04-17T05:24:54.163Z,42.53
2023-04-17T05:27:20.696Z,41.88
2023-04-17T05:29:47.253Z,38.67
2023-04-17T05:32:17.185Z,40.85
2023-04-17T05:34:43.649Z,41.63
2023-04-17T05:37:10.093Z,37.97
2023-04-17T05:39:36.636Z,39.50
2023-04-17T05:42:03.138Z,42.10
2023-04-17T05:44:30.172Z,38.30
2023-04-17T05:46:57.387Z,40.95
2023-04-17T05:49:23.918Z,43.13
2023-04-17T05:51:52.708Z,40.40
2023-04-17T05:54:19.175Z,40.83
2023-04-17T05:56:45.760Z,36.10
2023-04-17T05:59:12.447Z,36.08
2023-04-17T06:01:39.593Z,37.28
2023-04-17T06:04:06.621Z,38.75
2023-04-17T06:06:33.426Z,37.15
2023-04-17T06:08:59.857Z,34.47
2023-04-17T06:11:27.173Z,34.75
2023-04-17T06:13:53.710Z,34.50
2023-04-17T06:16:20.472Z,40.63
2023-04-17T06:18:49.726Z,32.60
2023-04-17T06:21:18.537Z,30.95
2023-04-17T06:23:44.982Z,32.47
2023-04-17T06:26:12.292Z,31.13
2023-04-17T06:28:38.785Z,38.33
2023-04-17T06:31:05.450Z,31.23
2023-04-17T06:33:32.499Z,30.13
2023-04-17T06:35:58.961Z,31.73
2023-04-17T06:38:25.424Z,33.15
2023-04-17T06:40:52.839Z,29.20
2023-04-17T06:43:19.365Z,31.77
2023-04-17T06:45:45.873Z,33.30
2023-04-17T06:48:12.346Z,27.60
2023-04-17T06:50:38.896Z,34.38
2023-04-17T06:53:05.732Z,31.30
2023-04-17T06:55:32.235Z,29.77
2023-04-17T06:57:58.714Z,34.58
2023-04-17T07:00:25.365Z,29.60
2023-04-17T07:02:52.009Z,32.58
2023-04-17T07:05:18.597Z,29.95
2023-04-17T07:07:45.209Z,26.60
2023-04-17T07:10:11.738Z,30.40
2023-04-17T07:12:38.241Z,31.02
2023-04-17T07:15:05.094Z,31.08
2023-04-17T07:17:31.704Z,30.75
2023-04-17T07:19:58.161Z,27.77
2023-04-17T07:22:26.585Z,33.33
2023-04-17T07:24:53.754Z,30.05
2023-04-17T07:27:20.349Z,29.38
2023-04-17T07:29:52.823Z,27.42
2023-04-17T07:32:19.396Z,30.38
2023-04-17T07:34:45.989Z,25.33
2023-04-17T07:37:12.472Z,23.73
2023-04-17T07:39:39.014Z,26.13
2023-04-17T07:42:08.766Z,27.98
2023-04-17T07:44:35.488Z,26.55
2023-04-17T07:47:02.152Z,23.70
2023-04-17T07:49:28.789Z,27.38
2023-04-17T07:51:55.565Z,37.90
2023-04-17T07:54:22.043Z,28.98
2023-04-17T07:56:49.444Z,31.23
2023-04-17T07:59:19.037Z,26.80
2023-04-17T08:01:45.574Z,28.38
2023-04-17T08:04:15.516Z,24.60
2023-04-17T08:06:42.172Z,28.38
2023-04-17T08:09:08.635Z,26.98
2023-04-17T08:11:40.144Z,33.03
2023-04-17T08:14:12.810Z,28.65
2023-04-17T08:16:39.305Z,27.77
2023-04-17T08:19:05.880Z,28.23
2023-04-17T08:21:32.404Z,27.05
2023-04-17T08:23:59.036Z,29.20
2023-04-17T08:26:25.516Z,27.35
2023-04-17T08:28:53.728Z,27.50
2023-04-17T08:31:20.406Z,24.70
2023-04-17T08:33:46.920Z,29.33
2023-04-17T08:36:13.669Z,28.58
2023-04-17T08:38:42.036Z,31.13
2023-04-17T08:41:13.258Z,27.85
2023-04-17T08:43:40.272Z,25.73
2023-04-17T08:46:07.532Z,29.33
2023-04-17T08:48:34.191Z,26.90
2023-04-17T08:51:01.711Z,24.77
2023-04-17T08:53:28.220Z,27.45
2023-04-17T08:55:54.690Z,24.02
2023-04-17T08:58:28.448Z,27.15
2023-04-17T09:00:55.945Z,25.00
2023-04-17T09:03:22.553Z,29.23
2023-04-17T09:05:49.201Z,25.73
2023-04-17T09:08:20.769Z,25.17
2023-04-17T09:10:48.792Z,23.77
2023-04-17T09:13:20.877Z,23.10
2023-04-17T09:16:03.399Z,26.70
2023-04-17T09:18:31.474Z,21.83
2023-04-17T09:20:59.826Z,23.73
2023-04-17T09:23:45.838Z,23.70
2023-04-17T09:26:16.562Z,24.02
2023-04-17T09:29:14.604Z,18.20
2023-04-17T09:31:42.991Z,22.55
2023-04-17T09:34:15.280Z,21.55
2023-04-17T09:36:43.836Z,21.50
2023-04-17T09:39:23.804Z,24.40
2023-04-17T09:42:02.317Z,23.50
2023-04-17T09:44:30.329Z,26.95
2023-04-17T09:46:57.323Z,22.20
2023-04-17T09:49:52.829Z,20.48
2023-04-17T09:52:23.745Z,19.50
2023-04-17T09:54:51.308Z,19.20
2023-04-17T09:57:18.615Z,17.80
2023-04-17T09:59:48.047Z,21.52
2023-04-17T10:02:17.025Z,18.70
2023-04-17T10:04:45.150Z,23.90
2023-04-17T10:07:13.252Z,23.00
2023-04-17T10:09:45.636Z,19.02
2023-04-17T10:12:15.357Z,20.20
2023-04-17T10:14:46.586Z,23.17
2023-04-17T10:17:31.755Z,23.30
2023-04-17T10:20:23.120Z,21.58
2023-04-17T10:22:54.872Z,21.63
2023-04-17T10:25:28.214Z,24.80
2023-04-17T10:27:58.300Z,18.33
2023-04-17T10:30:44.913Z,22.10
2023-04-17T10:33:20.096Z,18.67
2023-04-17T10:35:46.779Z,21.05
2023-04-17T10:38:13.293Z,24.70
2023-04-17T10:40:43.060Z,22.52
2023-04-17T10:43:17.561Z,26.85
2023-04-17T10:46:12.880Z,21.45
2023-04-17T10:48:52.807Z,22.35
2023-04-17T10:51:28.910Z,21.25
2023-04-17T10:54:03.688Z,20.90
2023-04-17T10:56:40.641Z,22.35
2023-04-17T10:59:09.657Z,21.77
2023-04-17T11:01:48.578Z,20.98
2023-04-17T11:04:27.530Z,17.83
2023-04-17T11:06:55.933Z,21.88
2023-04-17T11:09:30.945Z,25.80
2023-04-17T11:12:03.706Z,18.35
2023-04-17T11:14:31.095Z,32.30
2023-04-17T11:16:57.759Z,18.63
2023-04-17T11:19:26.164Z,21.13
2023-04-17T11:21:54.650Z,22.00
2023-04-17T11:24:28.103Z,21.05
2023-04-17T11:26:56.709Z,18.73
2023-04-17T11:29:24.536Z,21.83
2023-04-17T11:31:53.794Z,23.25
2023-04-17T11:34:21.128Z,21.55
2023-04-17T11:36:54.863Z,17.60
2023-04-17T11:39:23.358Z,28.70
2023-04-17T11:41:51.919Z,20.77
2023-04-17T11:44:22.707Z,20.17
2023-04-17T11:46:51.260Z,16.10
2023-04-17T11:49:27.377Z,13.77
2023-04-17T11:51:59.246Z,18.27
2023-04-17T11:54:34.522Z,17.60
2023-04-17T11:57:07.008Z,22.73
2023-04-17T11:59:37.787Z,17.58
2023-04-17T12:02:08.301Z,22.90
2023-04-17T12:04:39.673Z,19.88
2023-04-17T12:07:11.279Z,21.83
2023-04-17T12:09:37.766Z,18.20
2023-04-17T12:12:06.416Z,18.17
2023-04-17T12:14:33.256Z,17.95
2023-04-17T12:16:59.868Z,18.88
2023-04-17T12:19:27.449Z,17.92
2023-04-17T12:21:54.616Z,17.40
2023-04-17T12:24:22.895Z,23.40
2023-04-17T12:26:53.445Z,19.30
2023-04-17T12:29:32.231Z,17.17
2023-04-17T12:32:07.415Z,18.48
2023-04-17T12:34:34.071Z,21.00
2023-04-17T12:37:01.125Z,21.40
2023-04-17T12:39:27.629Z,18.60
2023-04-17T12:41:54.089Z,17.35
2023-04-17T12:44:20.691Z,19.23
2023-04-17T12:46:47.178Z,16.75
2023-04-17T12:49:13.736Z,18.08
2023-04-17T12:51:41.208Z,16.70
2023-04-17T12:54:08.208Z,22.73
2023-04-17T12:56:34.896Z,15.18
2023-04-17T12:59:02.990Z,20.23
2023-04-17T13:01:32.944Z,17.63
2023-04-17T13:03:59.600Z,18.52
2023-04-17T13:06:28.033Z,15.40
2023-04-17T13:08:54.538Z,10.50
2023-04-17T13:11:23.440Z,15.60
2023-04-17T13:13:49.921Z,12.20
2023-04-17T13:16:16.457Z,20.95
2023-04-17T13:18:42.992Z,22.27
2023-04-17T13:21:09.515Z,18.65
2023-04-17T13:23:36.020Z,19.42
2023-04-17T13:26:02.481Z,20.85
2023-04-17T13:28:28.936Z,15.35
2023-04-17T13:30:55.828Z,15.80
2023-04-17T13:33:22.370Z,20.23
2023-04-17T13:35:53.181Z,13.98
2023-04-17T13:38:19.653Z,17.02
2023-04-17T13:40:46.206Z,16.33
2023-04-17T13:43:12.662Z,17.10
2023-04-17T13:45:39.161Z,19.38
2023-04-17T13:48:05.783Z,21.25
2023-04-17T13:50:32.371Z,19.17
2023-04-17T13:52:58.855Z,12.73
2023-04-17T13:55:25.412Z,15.57
2023-04-17T13:57:51.898Z,17.35
2023-04-17T14:00:18.891Z,23.60
2023-04-17T14:02:45.499Z,19.38
2023-04-17T14:05:12.278Z,14.38
2023-04-17T14:07:38.764Z,22.00
2023-04-17T14:10:09.122Z,16.73
2023-04-17T14:12:36.286Z,16.60
2023-04-17T14:15:03.026Z,17.52
2023-04-17T14:17:29.592Z,15.93
2023-04-17T14:19:59.122Z,18.27
2023-04-17T14:22:25.619Z,16.52
2023-04-17T14:24:52.107Z,23.13
2023-04-17T14:27:18.572Z,14.25
2023-04-17T14:29:47.487Z,16.38
2023-04-17T14:32:13.925Z,14.05
2023-04-17T14:34:40.404Z,15.77
2023-04-17T14:37:06.882Z,14.50
2023-04-17T14:39:33.389Z,14.75
2023-04-17T14:42:01.912Z,17.80
2023-04-17T14:44:28.874Z,15.43
2023-04-17T14:46:56.801Z,10.73
2023-04-17T14:49:26.717Z,13.02
2023-04-17T14:51:53.264Z,17.58
2023-04-17T14:54:19.732Z,17.67
2023-04-17T14:56:46.255Z,16.88
2023-04-17T14:59:12.921Z,16.67
2023-04-17T15:01:39.611Z,16.35
2023-04-17T15:04:06.710Z,13.32
2023-04-17T15:06:33.464Z,15.63
2023-04-17T15:08:59.897Z,21.60
2023-04-17T15:11:26.447Z,16.58
2023-04-17T15:13:52.888Z,16.35
2023-04-17T15:16:22.267Z,15.95
2023-04-17T15:18:48.916Z,22.02
2023-04-17T15:21:16.349Z,15.30
2023-04-17T15:23:42.810Z,15.30
2023-04-17T15:26:09.320Z,17.77
2023-04-17T15:28:36.883Z,12.90
2023-04-17T15:31:03.494Z,19.60
2023-04-17T15:33:30.140Z,17.38
2023-04-17T15:35:58.442Z,16.17
2023-04-17T15:38:25.817Z,19.88
2023-04-17T15:40:52.766Z,18.40
2023-04-17T15:43:20.004Z,17.30
2023-04-17T15:45:48.694Z,16.23
2023-04-17T15:48:15.834Z,16.50
2023-04-17T15:50:42.430Z,18.05
2023-04-17T15:53:09.820Z,18.65
2023-04-17T15:55:36.771Z,15.55
2023-04-17T15:58:03.475Z,20.48
2023-04-17T16:00:30.023Z,14.65
2023-04-17T16:02:56.557Z,15.05
2023-04-17T16:05:23.069Z,15.90
2023-04-17T16:07:50.027Z,15.52
2023-04-17T16:10:16.971Z,16.98
2023-04-17T16:12:45.013Z,15.55
2023-04-17T16:15:16.286Z,14.15
2023-04-17T16:17:43.397Z,15.57
2023-04-17T16:20:13.269Z,12.85
2023-04-17T16:22:40.203Z,12.68
2023-04-17T16:25:09.983Z,12.95
2023-04-17T16:27:37.060Z,13.75
2023-04-17T16:30:05.045Z,13.48
2023-04-17T16:32:31.945Z,13.27
2023-04-17T16:34:58.790Z,13.20
2023-04-17T16:37:25.604Z,15.50
2023-04-17T16:39:52.274Z,15.70
2023-04-17T16:42:18.845Z,13.52
2023-04-17T16:44:48.807Z,12.82
2023-04-17T16:47:15.411Z,17.73
2023-04-17T16:49:42.613Z,13.57
2023-04-17T16:52:09.657Z,16.50
2023-04-17T16:54:36.104Z,24.35
2023-04-17T16:57:02.673Z,13.15
2023-04-17T16:59:29.111Z,21.25
2023-04-17T17:01:55.669Z,16.88
2023-04-17T17:04:22.263Z,18.23
2023-04-17T17:06:48.815Z,18.52
2023-04-17T17:09:15.559Z,14.02
2023-04-17T17:11:45.211Z,14.30
2023-04-17T17:14:11.755Z,18.48
2023-04-17T17:16:40.627Z,15.98
2023-04-17T17:19:07.183Z,19.50
2023-04-17T17:21:33.672Z,15.00
2023-04-17T17:24:00.931Z,16.23
2023-04-17T17:26:27.405Z,16.55
2023-04-17T17:28:55.366Z,14.65
2023-04-17T17:31:21.958Z,17.92
2023-04-17T17:33:50.182Z,15.13
2023-04-17T17:36:16.989Z,16.75
2023-04-17T17:38:44.000Z,20.58
2023-04-17T17:41:10.650Z,21.00
2023-04-17T17:43:38.925Z,16.33
2023-04-17T17:46:05.543Z,15.82
2023-04-17T17:48:34.079Z,17.15
2023-04-17T17:51:00.531Z,15.75
2023-04-17T17:53:27.320Z,15.38
2023-04-17T17:55:55.978Z,17.38
2023-04-17T17:58:23.305Z,21.17
2023-04-17T18:00:53.378Z,16.08
2023-04-17T18:03:20.722Z,14.05
2023-04-17T18:05:47.611Z,18.13
2023-04-17T18:08:14.474Z,20.55
2023-04-17T18:10:40.996Z,15.95
2023-04-17T18:13:07.508Z,16.65
2023-04-17T18:15:34.106Z,18.13
2023-04-17T18:18:00.749Z,19.42
2023-04-17T18:20:27.378Z,20.02
2023-04-17T18:22:53.965Z,17.80
2023-04-17T18:25:20.626Z,18.90
2023-04-17T18:27:47.081Z,19.50
2023-04-17T18:30:14.253Z,20.58
2023-04-17T18:32:40.752Z,18.85
2023-04-17T18:35:07.736Z,19.13
2023-04-17T18:37:34.207Z,21.65
2023-04-17T18:40:00.745Z,18.73
2023-04-17T18:42:27.179Z,16.88
2023-04-17T18:44:53.661Z,15.90
2023-04-17T18:47:20.359Z,15.68
2023-04-17T18:49:47.010Z,15.77
2023-04-17T18:52:13.508Z,18.02
2023-04-17T18:54:40.035Z,17.95
2023-04-17T18:57:06.582Z,14.18
2023-04-17T18:59:33.136Z,17.85
2023-04-17T19:01:59.592Z,15.60
2023-04-17T19:04:26.752Z,17.42
2023-04-17T19:06:53.217Z,15.25
2023-04-17T19:09:19.780Z,17.70
2023-04-17T19:11:46.634Z,15.70
2023-04-17T19:14:13.385Z,17.20
2023-04-17T19:16:40.176Z,11.93
2023-04-17T19:19:08.280Z,12.95
2023-04-17T19:21:34.800Z,12.77
2023-04-17T19:24:01.254Z,13.27
2023-04-17T19:26:27.760Z,12.10
2023-04-17T19:28:55.051Z,18.48
2023-04-17T19:31:21.891Z,12.30
2023-04-17T19:33:48.384Z,12.02
2023-04-17T19:36:14.930Z,14.50
2023-04-17T19:38:41.397Z,13.05
2023-04-17T19:41:17.277Z,14.35
2023-04-17T19:43:49.715Z,14.93
2023-04-17T19:46:17.065Z,11.57
2023-04-17T19:48:45.301Z,15.35
2023-04-17T19:51:15.953Z,12.65
2023-04-17T19:53:43.633Z,13.00
2023-04-17T19:56:10.837Z,14.98
2023-04-17T19:58:38.181Z,14.27
2023-04-17T20:01:05.281Z,13.32
2023-04-17T20:03:32.466Z,11.55
2023-04-17T20:06:00.129Z,11.25
2023-04-17T20:08:26.740Z,11.25
2023-04-17T20:10:56.384Z,11.30
2023-04-17T20:13:22.845Z,12.73
2023-04-17T20:15:49.460Z,11.05
2023-04-17T20:18:18.844Z,10.55
2023-04-17T20:20:45.436Z,10.15
2023-04-17T20:23:12.216Z,10.02
2023-04-17T20:25:38.718Z,11.35
2023-04-17T20:28:09.627Z,9.40
2023-04-17T20:30:41.579Z,11.85
2023-04-17T20:35:37.659Z,11.00
2023-04-17T20:38:04.533Z,9.73
2023-04-17T20:40:31.031Z,10.35
2023-04-17T20:42:57.491Z,9.52
2023-04-17T20:45:23.970Z,9.20
2023-04-17T20:50:24.080Z,10.02
2023-04-17T20:52:50.712Z,10.25
2023-04-17T20:55:19.569Z,10.18
2023-04-17T20:57:46.381Z,8.45
2023-04-17T21:00:13.337Z,9.45
2023-04-17T21:02:40.007Z,9.35
2023-04-17T21:05:09.621Z,8.73
2023-04-17T21:07:36.597Z,10.40
2023-04-17T21:10:03.601Z,10.15
2023-04-17T21:12:32.725Z,11.38
2023-04-17T21:15:01.955Z,8.93
2023-04-17T21:17:28.583Z,10.02
2023-04-17T21:19:56.230Z,8.60
2023-04-17T21:22:22.841Z,10.93
2023-04-17T21:24:49.465Z,11.13
2023-04-17T21:27:16.202Z,9.55
2023-04-17T21:29:43.184Z,10.30
2023-04-17T21:32:12.437Z,9.35
2023-04-17T21:34:39.146Z,9.30
2023-04-17T21:37:05.614Z,10.35
2023-04-17T21:39:33.327Z,8.45
2023-04-17T21:42:00.222Z,10.63
2023-04-17T21:44:26.706Z,9.88
2023-04-17T21:46:53.330Z,11.57
2023-04-17T21:49:28.295Z,10.60
2023-04-17T21:52:02.583Z,12.45
2023-04-17T21:54:29.051Z,11.60
2023-04-17T21:56:55.683Z,11.50
2023-04-17T21:59:22.160Z,9.73
2023-04-17T22:01:48.667Z,9.63
2023-04-17T22:04:15.281Z,10.23
2023-04-17T22:06:44.492Z,11.75
2023-04-17T22:09:12.480Z,11.55
2023-04-17T22:11:48.450Z,15.75
2023-04-17T22:14:16.529Z,13.77
2023-04-17T22:16:43.593Z,12.63
2023-04-17T22:19:13.468Z,15.65
2023-04-17T22:21:40.188Z,15.65
2023-04-17T22:24:10.687Z,14.18
2023-04-17T22:26:43.702Z,12.57
2023-04-17T22:29:10.173Z,15.48
2023-04-17T22:31:36.793Z,16.42
2023-04-17T22:34:03.652Z,16.48
2023-04-17T22:36:36.069Z,16.05
2023-04-17T22:39:02.636Z,17.30
2023-04-17T22:41:32.324Z,18.30
2023-04-17T22:43:58.811Z,16.17
2023-04-17T22:46:25.289Z,17.52
2023-04-17T22:48:51.802Z,23.40
2023-04-17T22:51:18.250Z,23.20
2023-04-17T22:53:44.732Z,18.65
2023-04-17T22:56:12.871Z,22.05
2023-04-17T22:58:39.363Z,17.05
2023-04-17T23:01:09.155Z,20.63
2023-04-17T23:03:35.745Z,26.30
2023-04-17T23:06:03.086Z,22.58
2023-04-17T23:08:32.591Z,24.98
2023-04-17T23:11:00.780Z,24.05
2023-04-17T23:13:28.164Z,22.50
2023-04-17T23:15:54.836Z,21.48
2023-04-17T23:18:21.428Z,19.58
2023-04-17T23:20:47.949Z,22.17
2023-04-17T23:23:18.425Z,20.08
2023-04-17T23:25:46.093Z,21.45
2023-04-17T23:28:12.642Z,20.95
2023-04-17T23:30:39.183Z,21.23
2023-04-17T23:33:05.739Z,22.30
2023-04-17T23:35:32.242Z,19.95
2023-04-17T23:37:58.707Z,19.52
2023-04-17T23:40:26.290Z,26.30
2023-04-17T23:42:53.070Z,18.02
2023-04-17T23:45:22.857Z,18.73
2023-04-17T23:47:49.433Z,20.10
2023-04-17T23:50:16.017Z,19.02
2023-04-17T23:52:42.503Z,21.40
2023-04-17T23:55:09.265Z,21.33
2023-04-17T23:57:37.736Z,15.82
